createdAt,value
2023-01-08T00:01:08.025Z,93475.97
2023-01-08T00:03:35.704Z,93463.91
2023-01-08T00:06:04.254Z,93469.84
2023-01-08T00:08:31.815Z,93471.19
2023-01-08T00:10:58.731Z,93467.59
2023-01-08T00:13:25.730Z,93460.16
2023-01-08T00:15:52.880Z,93445.88
2023-01-08T00:18:19.782Z,93444.41
2023-01-08T00:20:48.506Z,93443.06
2023-01-08T00:23:18.064Z,93449.44
2023-01-08T00:25:45.114Z,93440.22
2023-01-08T00:28:11.747Z,93437.03
2023-01-08T00:30:38.467Z,93428.53
2023-01-08T00:33:05.144Z,93418.41
2023-01-08T00:35:31.963Z,93427.75
2023-01-08T00:37:58.631Z,93428.25
2023-01-08T00:40:25.306Z,93415.81
2023-01-08T00:42:52.067Z,93410.59
2023-01-08T00:45:19.081Z,93409.88
2023-01-08T00:47:45.717Z,93412.59
2023-01-08T00:50:12.480Z,93406.28
2023-01-08T00:52:39.192Z,93396.56
2023-01-08T00:55:06.513Z,93395.19
2023-01-08T00:57:37.557Z,93389.41
2023-01-08T01:00:06.665Z,93385.66
2023-01-08T01:02:35.375Z,93373.72
2023-01-08T01:05:02.235Z,93381.41
2023-01-08T01:07:28.934Z,93391.91
2023-01-08T01:09:55.533Z,93391.31
2023-01-08T01:12:22.279Z,93386.19
2023-01-08T01:14:48.865Z,93382.88
2023-01-08T01:17:15.537Z,93385.25
2023-01-08T01:19:42.561Z,93390.81
2023-01-08T01:22:09.159Z,93394.38
2023-01-08T01:24:36.229Z,93389.63
2023-01-08T01:27:02.832Z,93386.63
2023-01-08T01:29:29.468Z,93393.84
2023-01-08T01:31:56.116Z,93395.19
2023-01-08T01:34:22.759Z,93393.16
2023-01-08T01:36:49.461Z,93402.31
2023-01-08T01:39:16.202Z,93394.84
2023-01-08T01:41:45.150Z,93397.69
2023-01-08T01:44:33.578Z,93409.97
2023-01-08T01:47:03.350Z,93404.44
2023-01-08T01:49:30.606Z,93404.72
2023-01-08T01:52:02.389Z,93404.88
2023-01-08T01:54:31.650Z,93397.34
2023-01-08T01:57:00.835Z,93400.69
2023-01-08T01:59:27.771Z,93380.97
2023-01-08T02:01:56.329Z,93379.94
2023-01-08T02:04:23.158Z,93375.44
2023-01-08T02:07:08.436Z,93374.66
2023-01-08T02:10:05.822Z,93375.13
2023-01-08T02:12:50.119Z,93376.72
2023-01-08T02:15:27.618Z,93369.78
2023-01-08T02:18:18.218Z,93360.44
2023-01-08T02:20:51.002Z,93355.63
2023-01-08T02:23:27.401Z,93344.84
2023-01-08T02:26:06.493Z,93327.00
2023-01-08T02:28:39.960Z,93327.38
2023-01-08T02:31:07.464Z,93323.53
2023-01-08T02:33:34.672Z,93329.78
2023-01-08T02:36:13.330Z,93319.06
2023-01-08T02:38:50.825Z,93316.88
2023-01-08T02:41:19.713Z,93324.16
2023-01-08T02:43:50.112Z,93319.31
2023-01-08T02:46:34.849Z,93314.41
2023-01-08T02:49:07.822Z,93311.31
2023-01-08T02:51:41.616Z,93298.28
2023-01-08T02:54:14.696Z,93299.53
2023-01-08T02:56:49.153Z,93297.03
2023-01-08T02:59:18.828Z,93299.84
2023-01-08T03:01:46.626Z,93309.00
2023-01-08T03:04:21.732Z,93309.47
2023-01-08T03:06:49.435Z,93292.06
2023-01-08T03:09:17.254Z,93296.13
2023-01-08T03:12:07.209Z,93287.78
2023-01-08T03:14:43.616Z,93281.09
2023-01-08T03:17:48.385Z,93283.94
2023-01-08T03:20:18.833Z,93281.69
2023-01-08T03:22:49.801Z,93273.44
2023-01-08T03:25:19.277Z,93279.25
2023-01-08T03:27:50.542Z,93270.59
2023-01-08T03:30:18.893Z,93262.22
2023-01-08T03:32:48.014Z,93260.19
2023-01-08T03:35:19.959Z,93249.66
2023-01-08T03:37:52.099Z,93249.63
2023-01-08T03:40:36.666Z,93251.66
2023-01-08T03:43:03.535Z,93246.97
2023-01-08T03:45:32.175Z,93247.84
2023-01-08T03:48:00.567Z,93252.41
2023-01-08T03:50:30.459Z,93264.78
2023-01-08T03:52:58.740Z,93270.38
2023-01-08T03:55:27.237Z,93269.13
2023-01-08T03:57:53.845Z,93277.56
2023-01-08T04:00:20.631Z,93290.56
2023-01-08T04:02:47.329Z,93293.72
2023-01-08T04:05:14.035Z,93283.28
2023-01-08T04:07:40.789Z,93284.75
2023-01-08T04:10:07.675Z,93277.75
2023-01-08T04:12:34.290Z,93273.38
2023-01-08T04:15:01.010Z,93276.13
2023-01-08T04:17:27.706Z,93266.72
2023-01-08T04:19:54.390Z,93255.59
2023-01-08T04:22:21.096Z,93250.44
2023-01-08T04:24:47.784Z,93247.66
2023-01-08T04:27:14.446Z,93253.94
2023-01-08T04:29:41.033Z,93265.53
2023-01-08T04:32:07.726Z,93274.53
2023-01-08T04:34:34.394Z,93283.50
2023-01-08T04:37:01.891Z,93294.28
2023-01-08T04:39:28.911Z,93296.72
2023-01-08T04:41:55.553Z,93291.88
2023-01-08T04:44:22.328Z,93289.06
2023-01-08T04:46:48.927Z,93295.28
2023-01-08T04:49:15.647Z,93275.88
2023-01-08T04:51:42.324Z,93250.84
2023-01-08T04:54:08.981Z,93262.81
2023-01-08T04:56:35.734Z,93250.50
2023-01-08T04:59:02.505Z,93253.03
2023-01-08T05:01:29.680Z,93246.97
2023-01-08T05:04:02.016Z,93234.81
2023-01-08T05:06:30.086Z,93238.25
2023-01-08T05:08:57.566Z,93249.84
2023-01-08T05:11:25.222Z,93260.47
2023-01-08T05:13:52.859Z,93253.97
2023-01-08T05:16:20.012Z,93250.56
2023-01-08T05:18:46.689Z,93260.16
2023-01-08T05:21:13.871Z,93260.41
2023-01-08T05:23:43.979Z,93246.06
2023-01-08T05:26:10.616Z,93254.41
2023-01-08T05:28:37.242Z,93256.41
2023-01-08T05:31:04.057Z,93241.91
2023-01-08T05:33:31.443Z,93246.44
2023-01-08T05:35:58.052Z,93245.75
2023-01-08T05:38:24.843Z,93242.44
2023-01-08T05:40:54.702Z,93230.25
2023-01-08T05:43:21.493Z,93248.25
2023-01-08T05:45:48.299Z,93265.25
2023-01-08T05:48:14.935Z,93257.44
2023-01-08T05:50:41.643Z,93247.75
2023-01-08T05:53:09.696Z,93241.03
2023-01-08T05:55:36.933Z,93251.47
2023-01-08T05:58:05.966Z,93233.41
2023-01-08T06:00:33.829Z,93232.75
2023-01-08T06:03:00.604Z,93240.56
2023-01-08T06:05:27.276Z,93245.25
2023-01-08T06:07:53.938Z,93249.19
2023-01-08T06:10:20.577Z,93252.72
2023-01-08T06:12:47.548Z,93256.81
2023-01-08T06:15:14.162Z,93251.31
2023-01-08T06:17:41.160Z,93270.88
2023-01-08T06:20:08.674Z,93242.41
2023-01-08T06:22:35.623Z,93262.59
2023-01-08T06:25:04.902Z,93265.34
2023-01-08T06:27:31.645Z,93254.53
2023-01-08T06:29:58.336Z,93269.22
2023-01-08T06:32:24.965Z,93258.03
2023-01-08T06:34:51.630Z,93264.34
2023-01-08T06:37:18.350Z,93260.44
2023-01-08T06:39:44.945Z,93245.91
2023-01-08T06:42:11.647Z,93250.34
2023-01-08T06:44:38.325Z,93251.38
2023-01-08T06:47:05.076Z,93241.03
2023-01-08T06:49:31.649Z,93238.06
2023-01-08T06:51:58.316Z,93238.88
2023-01-08T06:54:25.009Z,93247.88
2023-01-08T06:56:53.946Z,93238.31
2023-01-08T06:59:21.464Z,93231.78
2023-01-08T07:01:48.294Z,93238.03
2023-01-08T07:04:15.310Z,93233.03
2023-01-08T07:06:41.895Z,93238.16
2023-01-08T07:09:12.744Z,93237.72
2023-01-08T07:11:40.239Z,93238.03
2023-01-08T07:14:06.959Z,93232.66
2023-01-08T07:16:33.704Z,93240.06
2023-01-08T07:19:00.504Z,93233.13
2023-01-08T07:21:27.206Z,93236.25
2023-01-08T07:23:53.999Z,93239.06
2023-01-08T07:26:20.608Z,93235.22
2023-01-08T07:28:47.205Z,93229.84
2023-01-08T07:31:13.900Z,93234.53
2023-01-08T07:33:40.638Z,93234.19
2023-01-08T07:36:07.860Z,93247.72
2023-01-08T07:38:34.677Z,93245.75
2023-01-08T07:41:01.310Z,93251.66
2023-01-08T07:43:29.957Z,93250.44
2023-01-08T07:45:57.630Z,93248.81
2023-01-08T07:48:24.422Z,93251.53
2023-01-08T07:50:51.368Z,93246.59
2023-01-08T07:53:18.160Z,93255.13
2023-01-08T07:55:44.874Z,93239.69
2023-01-08T07:58:14.475Z,93237.78
2023-01-08T08:00:41.708Z,93242.44
2023-01-08T08:03:12.189Z,93233.13
2023-01-08T08:05:39.430Z,93245.13
2023-01-08T08:08:10.965Z,93246.31
2023-01-08T08:10:38.745Z,93244.34
2023-01-08T08:13:05.895Z,93241.69
2023-01-08T08:15:33.213Z,93240.94
2023-01-08T08:17:59.930Z,93246.38
2023-01-08T08:20:27.276Z,93235.94
2023-01-08T08:23:01.774Z,93240.97
2023-01-08T08:25:28.720Z,93242.91
2023-01-08T08:27:59.281Z,93247.56
2023-01-08T08:30:27.655Z,93237.88
2023-01-08T08:32:54.827Z,93231.31
2023-01-08T08:35:22.022Z,93230.94
2023-01-08T08:37:48.732Z,93228.97
2023-01-08T08:40:15.549Z,93227.06
2023-01-08T08:42:42.209Z,93224.72
2023-01-08T08:45:09.310Z,93225.13
2023-01-08T08:47:36.054Z,93225.13
2023-01-08T08:50:03.327Z,93231.31
2023-01-08T08:52:31.379Z,93220.81
2023-01-08T08:54:58.191Z,93225.50
2023-01-08T08:57:26.015Z,93227.41
2023-01-08T08:59:52.836Z,93229.75
2023-01-08T09:02:20.175Z,93228.94
2023-01-08T09:04:46.972Z,93230.50
2023-01-08T09:07:13.634Z,93235.53
2023-01-08T09:09:40.308Z,93240.16
2023-01-08T09:12:07.752Z,93244.44
2023-01-08T09:14:34.476Z,93236.28
2023-01-08T09:17:01.198Z,93238.59
2023-01-08T09:19:27.845Z,93238.97
2023-01-08T09:21:54.524Z,93238.94
2023-01-08T09:24:21.214Z,93249.03
2023-01-08T09:26:47.821Z,93246.69
2023-01-08T09:29:14.500Z,93254.03
2023-01-08T09:31:41.199Z,93261.38
2023-01-08T09:34:07.860Z,93255.94
2023-01-08T09:36:34.584Z,93251.69
2023-01-08T09:39:01.514Z,93251.69
2023-01-08T09:41:31.290Z,93244.72
2023-01-08T09:44:00.242Z,93250.53
2023-01-08T09:46:28.740Z,93254.78
2023-01-08T09:48:59.317Z,93252.06
2023-01-08T09:51:35.337Z,93256.38
2023-01-08T09:54:03.038Z,93239.69
2023-01-08T09:56:30.399Z,93252.13
2023-01-08T09:59:01.223Z,93252.13
2023-01-08T10:01:39.274Z,93249.78
2023-01-08T10:04:18.069Z,93247.03
2023-01-08T10:06:55.315Z,93250.94
2023-01-08T10:09:27.101Z,93251.25
2023-01-08T10:11:56.575Z,93240.00
2023-01-08T10:14:27.005Z,93240.00
2023-01-08T10:17:03.413Z,93235.38
2023-01-08T10:19:30.071Z,93234.56
2023-01-08T10:21:57.780Z,93225.97
2023-01-08T10:24:35.219Z,93222.47
2023-01-08T10:27:28.297Z,93218.53
2023-01-08T10:30:05.383Z,93218.91
2023-01-08T10:32:36.685Z,93213.41
2023-01-08T10:35:06.636Z,93204.78
2023-01-08T10:37:39.456Z,93207.13
2023-01-08T10:40:29.590Z,93196.66
2023-01-08T10:42:58.593Z,93197.34
2023-01-08T10:45:27.978Z,93180.63
2023-01-08T10:48:00.640Z,93182.19
2023-01-08T10:50:32.344Z,93183.59
2023-01-08T10:53:05.357Z,93176.66
2023-01-08T10:55:37.368Z,93174.69
2023-01-08T10:58:10.051Z,93162.28
2023-01-08T11:00:37.573Z,93160.38
2023-01-08T11:03:07.102Z,93160.69
2023-01-08T11:05:36.444Z,93155.91
2023-01-08T11:08:06.830Z,93155.91
2023-01-08T11:10:36.504Z,93138.81
2023-01-08T11:13:07.122Z,93136.09
2023-01-08T11:15:39.020Z,93125.53
2023-01-08T11:18:21.555Z,93120.63
2023-01-08T11:20:49.733Z,93110.13
2023-01-08T11:23:23.296Z,93106.16
2023-01-08T11:26:06.328Z,93109.75
2023-01-08T11:28:59.403Z,93094.59
2023-01-08T11:31:41.566Z,93092.16
2023-01-08T11:34:18.343Z,93085.19
2023-01-08T11:36:53.014Z,93088.78
2023-01-08T11:39:19.800Z,93088.09
2023-01-08T11:42:08.436Z,93080.22
2023-01-08T11:45:02.690Z,93078.00
2023-01-08T11:47:29.295Z,93071.75
2023-01-08T11:50:21.825Z,93066.31
2023-01-08T11:53:03.577Z,93063.97
2023-01-08T11:55:42.907Z,93039.94
2023-01-08T11:58:28.294Z,93041.34
2023-01-08T12:00:58.861Z,93035.53
2023-01-08T12:03:34.384Z,93036.41
2023-01-08T12:06:36.865Z,93024.56
2023-01-08T12:09:28.361Z,93017.19
2023-01-08T12:12:02.797Z,93018.63
2023-01-08T12:14:38.128Z,93013.31
2023-01-08T12:17:39.047Z,93014.91
2023-01-08T12:20:26.334Z,93009.72
2023-01-08T12:23:07.006Z,92995.69
2023-01-08T12:26:12.064Z,93001.59
2023-01-08T12:28:49.471Z,92992.22
2023-01-08T12:31:28.627Z,92986.81
2023-01-08T12:34:05.650Z,92984.78
2023-01-08T12:36:54.828Z,92982.03
2023-01-08T12:39:29.869Z,92977.66
2023-01-08T12:42:11.218Z,92989.72
2023-01-08T12:44:38.211Z,92985.44
2023-01-08T12:47:07.734Z,92993.22
2023-01-08T12:49:51.675Z,92983.44
2023-01-08T12:52:25.109Z,92985.69
2023-01-08T12:55:38.086Z,92969.19
2023-01-08T12:58:25.809Z,92973.84
2023-01-08T13:01:21.340Z,92966.09
2023-01-08T13:03:49.249Z,92965.16
2023-01-08T13:06:18.458Z,92963.38
2023-01-08T13:08:49.712Z,92954.94
2023-01-08T13:11:38.360Z,92942.97
2023-01-08T13:14:10.827Z,92938.88
2023-01-08T13:16:40.175Z,92930.19
2023-01-08T13:19:21.774Z,92927.41
2023-01-08T13:21:57.577Z,92918.28
2023-01-08T13:24:30.014Z,92925.00
2023-01-08T13:26:57.518Z,92921.41
2023-01-08T13:29:44.458Z,92914.75
2023-01-08T13:32:45.778Z,92922.88
2023-01-08T13:35:15.164Z,92911.81
2023-01-08T13:37:47.610Z,92913.56
2023-01-08T13:40:52.371Z,92897.56
2023-01-08T13:43:24.317Z,92900.50
2023-01-08T13:45:59.777Z,92901.38
2023-01-08T13:48:33.993Z,92895.03
2023-01-08T13:51:00.861Z,92896.66
2023-01-08T13:53:27.599Z,92890.13
2023-01-08T13:56:01.148Z,92890.00
2023-01-08T13:58:33.362Z,92887.53
2023-01-08T14:01:01.744Z,92886.09
2023-01-08T14:03:29.984Z,92892.88
2023-01-08T14:06:20.318Z,92890.00
2023-01-08T14:08:58.287Z,92880.84
2023-01-08T14:11:43.789Z,92880.41
2023-01-08T14:14:16.049Z,92881.00
2023-01-08T14:16:43.774Z,92888.59
2023-01-08T14:19:20.158Z,92895.00
2023-01-08T14:21:51.646Z,92881.03
2023-01-08T14:24:20.054Z,92887.72
2023-01-08T14:26:55.203Z,92880.84
2023-01-08T14:29:25.219Z,92879.75
2023-01-08T14:31:55.020Z,92882.22
2023-01-08T14:34:25.004Z,92881.06
2023-01-08T14:36:54.000Z,92874.22
2023-01-08T14:39:33.419Z,92865.84
2023-01-08T14:42:42.785Z,92868.69
2023-01-08T14:45:15.575Z,92864.00
2023-01-08T14:47:49.334Z,92864.25
2023-01-08T14:50:29.717Z,92857.00
2023-01-08T14:53:08.043Z,92856.59
2023-01-08T14:55:41.802Z,92858.66
2023-01-08T14:58:18.267Z,92843.50
2023-01-08T15:00:51.889Z,92846.53
2023-01-08T15:03:39.441Z,92839.13
2023-01-08T15:06:15.926Z,92845.41
2023-01-08T15:08:44.685Z,92846.06
2023-01-08T15:11:24.822Z,92847.56
2023-01-08T15:13:53.251Z,92843.41
2023-01-08T15:16:29.536Z,92840.72
2023-01-08T15:19:11.104Z,92837.19
2023-01-08T15:21:38.667Z,92832.22
2023-01-08T15:24:07.267Z,92838.97
2023-01-08T15:26:34.199Z,92826.16
2023-01-08T15:29:05.112Z,92832.06
2023-01-08T15:31:45.071Z,92826.13
2023-01-08T15:34:11.860Z,92825.00
2023-01-08T15:36:38.544Z,92812.28
2023-01-08T15:39:06.123Z,92820.03
2023-01-08T15:41:56.019Z,92813.84
2023-01-08T15:44:23.728Z,92815.84
2023-01-08T15:46:52.475Z,92806.53
2023-01-08T15:49:19.157Z,92801.53
2023-01-08T15:51:49.557Z,92800.38
2023-01-08T15:54:16.750Z,92803.16
2023-01-08T15:56:43.567Z,92801.31
2023-01-08T15:59:11.360Z,92791.66
2023-01-08T16:01:38.625Z,92785.38
2023-01-08T16:04:05.346Z,92770.66
2023-01-08T16:06:32.264Z,92772.16
2023-01-08T16:09:00.480Z,92764.50
2023-01-08T16:11:27.845Z,92765.63
2023-01-08T16:13:54.988Z,92757.13
2023-01-08T16:16:22.240Z,92742.00
2023-01-08T16:18:49.344Z,92749.72
2023-01-08T16:21:16.026Z,92740.59
2023-01-08T16:23:42.721Z,92748.69
2023-01-08T16:26:14.583Z,92733.97
2023-01-08T16:28:41.796Z,92732.81
2023-01-08T16:31:09.202Z,92727.84
2023-01-08T16:33:35.998Z,92737.91
2023-01-08T16:36:08.147Z,92732.03
2023-01-08T16:38:36.139Z,92728.91
2023-01-08T16:41:03.036Z,92737.78
2023-01-08T16:43:31.484Z,92731.59
2023-01-08T16:46:03.185Z,92735.03
2023-01-08T16:48:30.701Z,92731.50
2023-01-08T16:51:04.999Z,92726.78
2023-01-08T16:53:32.100Z,92733.31
2023-01-08T16:55:59.971Z,92736.88
2023-01-08T16:58:26.662Z,92725.19
2023-01-08T17:00:53.360Z,92731.38
2023-01-08T17:03:20.743Z,92718.97
2023-01-08T17:05:47.546Z,92720.50
2023-01-08T17:08:16.292Z,92723.28
2023-01-08T17:10:43.744Z,92726.44
2023-01-08T17:13:10.367Z,92724.06
2023-01-08T17:15:38.046Z,92716.38
2023-01-08T17:18:04.747Z,92726.09
2023-01-08T17:20:32.193Z,92717.63
2023-01-08T17:23:01.371Z,92716.88
2023-01-08T17:25:28.192Z,92720.75
2023-01-08T17:27:54.843Z,92718.53
2023-01-08T17:30:21.695Z,92714.34
2023-01-08T17:32:48.467Z,92717.81
2023-01-08T17:35:15.182Z,92712.06
2023-01-08T17:37:41.918Z,92714.84
2023-01-08T17:40:09.658Z,92707.50
2023-01-08T17:42:36.254Z,92706.75
2023-01-08T17:45:05.649Z,92699.84
2023-01-08T17:47:32.445Z,92699.00
2023-01-08T17:49:59.163Z,92698.25
2023-01-08T17:52:26.002Z,92699.47
2023-01-08T17:54:53.516Z,92687.06
2023-01-08T17:57:21.100Z,92681.59
2023-01-08T17:59:48.660Z,92678.53
2023-01-08T18:02:16.727Z,92681.56
2023-01-08T18:04:45.391Z,92679.66
2023-01-08T18:07:12.347Z,92672.31
2023-01-08T18:09:39.030Z,92671.09
2023-01-08T18:12:05.917Z,92679.56
2023-01-08T18:14:34.946Z,92662.09
2023-01-08T18:17:01.953Z,92657.69
2023-01-08T18:19:28.594Z,92655.72
2023-01-08T18:21:55.276Z,92650.31
2023-01-08T18:24:21.950Z,92642.16
2023-01-08T18:26:49.513Z,92642.81
2023-01-08T18:29:16.325Z,92637.75
2023-01-08T18:31:45.696Z,92638.53
2023-01-08T18:34:14.998Z,92637.69
2023-01-08T18:36:41.975Z,92630.41
2023-01-08T18:39:08.636Z,92624.75
2023-01-08T18:41:53.695Z,92622.28
2023-01-08T18:44:20.461Z,92616.06
2023-01-08T18:46:48.305Z,92612.97
2023-01-08T18:49:15.752Z,92611.34
2023-01-08T18:51:42.845Z,92599.31
2023-01-08T18:54:11.258Z,92597.97
2023-01-08T18:56:38.292Z,92590.50
2023-01-08T18:59:06.882Z,92583.09
2023-01-08T19:01:34.999Z,92577.06
2023-01-08T19:04:02.168Z,92577.00
2023-01-08T19:06:28.910Z,92566.06
2023-01-08T19:08:58.121Z,92557.63
2023-01-08T19:11:25.282Z,92557.22
2023-01-08T19:13:56.872Z,92550.75
2023-01-08T19:16:23.977Z,92543.53
2023-01-08T19:18:50.911Z,92534.84
2023-01-08T19:21:19.338Z,92543.16
2023-01-08T19:23:48.978Z,92534.38
2023-01-08T19:26:16.591Z,92524.84
2023-01-08T19:28:43.673Z,92529.72
2023-01-08T19:31:15.396Z,92524.22
2023-01-08T19:33:42.481Z,92520.97
2023-01-08T19:36:15.712Z,92522.50
2023-01-08T19:38:43.968Z,92513.19
2023-01-08T19:41:30.661Z,92521.38
2023-01-08T19:43:58.291Z,92514.97
2023-01-08T19:46:25.982Z,92500.19
2023-01-08T19:48:52.935Z,92492.72
2023-01-08T19:51:19.912Z,92480.22
2023-01-08T19:53:46.611Z,92477.50
2023-01-08T19:56:14.949Z,92476.59
2023-01-08T19:58:42.145Z,92474.53
2023-01-08T20:01:17.057Z,92474.94
2023-01-08T20:03:44.514Z,92468.56
2023-01-08T20:06:19.582Z,92468.06
2023-01-08T20:08:50.667Z,92473.47
2023-01-08T20:11:17.756Z,92472.38
2023-01-08T20:13:44.579Z,92468.94
2023-01-08T20:16:14.073Z,92466.22
2023-01-08T20:18:40.867Z,92474.53
2023-01-08T20:21:16.780Z,92461.72
2023-01-08T20:23:45.020Z,92459.84
2023-01-08T20:26:17.982Z,92460.13
2023-01-08T20:28:46.197Z,92470.19
2023-01-08T20:31:21.354Z,92466.38
2023-01-08T20:33:49.168Z,92471.41
2023-01-08T20:36:21.173Z,92468.22
2023-01-08T20:38:55.024Z,92473.97
2023-01-08T20:41:22.036Z,92472.72
2023-01-08T20:43:49.167Z,92469.66
2023-01-08T20:46:16.456Z,92467.41
2023-01-08T20:48:47.815Z,92464.28
2023-01-08T20:51:15.865Z,92451.00
2023-01-08T20:53:42.608Z,92462.34
2023-01-08T20:56:14.738Z,92451.06
2023-01-08T20:58:43.747Z,92452.28
2023-01-08T21:01:22.803Z,92443.75
2023-01-08T21:03:53.420Z,92445.28
2023-01-08T21:06:21.949Z,92454.66
2023-01-08T21:08:50.449Z,92437.63
2023-01-08T21:11:18.894Z,92444.34
2023-01-08T21:13:46.092Z,92443.94
2023-01-08T21:16:16.194Z,92445.06
2023-01-08T21:18:49.276Z,92431.13
2023-01-08T21:21:19.114Z,92434.69
2023-01-08T21:23:47.432Z,92431.53
2023-01-08T21:26:15.752Z,92435.84
2023-01-08T21:28:42.963Z,92437.53
2023-01-08T21:31:13.269Z,92432.16
2023-01-08T21:33:40.723Z,92426.38
2023-01-08T21:36:10.067Z,92424.53
2023-01-08T21:38:37.498Z,92425.38
2023-01-08T21:41:06.852Z,92426.13
2023-01-08T21:43:52.462Z,92430.47
2023-01-08T21:46:20.138Z,92427.00
2023-01-08T21:48:51.569Z,92436.66
2023-01-08T21:51:37.008Z,92432.81
2023-01-08T21:54:04.431Z,92437.44
2023-01-08T21:56:31.381Z,92428.94
2023-01-08T21:58:58.078Z,92433.94
2023-01-08T22:01:24.819Z,92432.81
2023-01-08T22:03:51.654Z,92438.50
2023-01-08T22:06:18.308Z,92432.22
2023-01-08T22:08:45.295Z,92433.34
2023-01-08T22:11:11.955Z,92435.69
2023-01-08T22:13:39.339Z,92438.00
2023-01-08T22:16:09.212Z,92439.91
2023-01-08T22:18:37.209Z,92444.56
2023-01-08T22:21:14.506Z,92433.34
2023-01-08T22:23:41.226Z,92430.69
2023-01-08T22:26:10.633Z,92417.47
2023-01-08T22:28:39.273Z,92422.44
2023-01-08T22:31:12.419Z,92411.59
2023-01-08T22:33:39.816Z,92412.34
2023-01-08T22:36:09.274Z,92401.94
2023-01-08T22:38:36.948Z,92410.41
2023-01-08T22:41:04.160Z,92408.16
2023-01-08T22:43:30.966Z,92406.22
2023-01-08T22:45:59.799Z,92408.47
2023-01-08T22:48:27.256Z,92408.03
2023-01-08T22:50:53.937Z,92411.91
2023-01-08T22:53:20.757Z,92406.47
2023-01-08T22:55:48.418Z,92404.22
2023-01-08T22:58:16.336Z,92405.31
2023-01-08T23:00:43.536Z,92401.81
2023-01-08T23:03:10.550Z,92405.63
2023-01-08T23:05:37.315Z,92398.25
2023-01-08T23:08:04.211Z,92389.34
2023-01-08T23:10:31.603Z,92390.06
2023-01-08T23:12:58.233Z,92395.13
2023-01-08T23:15:25.192Z,92387.00
2023-01-08T23:17:52.853Z,92381.50
2023-01-08T23:20:21.206Z,92381.91
2023-01-08T23:22:48.878Z,92373.31
2023-01-08T23:25:16.366Z,92377.19
2023-01-08T23:27:44.827Z,92375.97
2023-01-08T23:30:12.166Z,92376.41
2023-01-08T23:32:39.837Z,92369.00
2023-01-08T23:35:06.898Z,92363.56
2023-01-08T23:37:34.154Z,92370.19
2023-01-08T23:40:00.816Z,92365.81
2023-01-08T23:42:29.436Z,92358.50
2023-01-08T23:44:56.558Z,92359.63
2023-01-08T23:47:23.370Z,92358.50
2023-01-08T23:49:50.053Z,92363.94
2023-01-08T23:52:16.728Z,92370.06
2023-01-08T23:54:43.358Z,92361.94
2023-01-08T23:57:10.014Z,92357.38
2023-01-08T23:59:36.644Z,92361.97
